sensor_id;sensor_type;location;lat;lon;timestamp;temperature;humidity
78696;SHT31;68030;51.980;5.646;2024-03-29T00:02:24;12.2;50.6
78696;SHT31;68030;51.980;5.646;2024-03-29T00:04:52;12.2;50.6
78696;SHT31;68030;51.980;5.646;2024-03-29T00:07:21;12.1;50.6
78696;SHT31;68030;51.980;5.646;2024-03-29T00:09:49;12.1;50.8
78696;SHT31;68030;51.980;5.646;2024-03-29T00:12:18;12.1;50.7
78696;SHT31;68030;51.980;5.646;2024-03-29T00:14:46;12.1;50.8
78696;SHT31;68030;51.980;5.646;2024-03-29T00:17:16;12.1;51.0
78696;SHT31;68030;51.980;5.646;2024-03-29T00:19:44;12.1;51.1
78696;SHT31;68030;51.980;5.646;2024-03-29T00:22:13;12.1;51.0
78696;SHT31;68030;51.980;5.646;2024-03-29T00:24:41;12.1;51.1
78696;SHT31;68030;51.980;5.646;2024-03-29T00:27:10;12.0;51.3
78696;SHT31;68030;51.980;5.646;2024-03-29T00:29:38;12.0;51.3
78696;SHT31;68030;51.980;5.646;2024-03-29T00:32:08;12.0;51.3
78696;SHT31;68030;51.980;5.646;2024-03-29T00:34:36;12.0;51.5
78696;SHT31;68030;51.980;5.646;2024-03-29T00:37:07;12.0;51.3
78696;SHT31;68030;51.980;5.646;2024-03-29T00:39:35;12.0;51.3
78696;SHT31;68030;51.980;5.646;2024-03-29T00:42:04;12.0;51.3
78696;SHT31;68030;51.980;5.646;2024-03-29T00:44:35;12.0;51.3
78696;SHT31;68030;51.980;5.646;2024-03-29T00:47:05;12.1;51.3
78696;SHT31;68030;51.980;5.646;2024-03-29T00:49:34;12.1;51.3
78696;SHT31;68030;51.980;5.646;2024-03-29T00:52:03;12.1;51.2
78696;SHT31;68030;51.980;5.646;2024-03-29T00:54:32;12.1;51.4
78696;SHT31;68030;51.980;5.646;2024-03-29T00:57:01;12.1;51.2
78696;SHT31;68030;51.980;5.646;2024-03-29T00:59:29;12.1;51.1
78696;SHT31;68030;51.980;5.646;2024-03-29T01:01:59;12.1;51.1
78696;SHT31;68030;51.980;5.646;2024-03-29T01:04:28;12.1;51.1
78696;SHT31;68030;51.980;5.646;2024-03-29T01:06:56;12.1;51.0
78696;SHT31;68030;51.980;5.646;2024-03-29T01:09:25;12.1;51.0
78696;SHT31;68030;51.980;5.646;2024-03-29T01:11:54;12.1;50.9
78696;SHT31;68030;51.980;5.646;2024-03-29T01:14:23;12.1;51.0
78696;SHT31;68030;51.980;5.646;2024-03-29T01:16:52;12.1;50.8
78696;SHT31;68030;51.980;5.646;2024-03-29T01:19:21;12.1;50.8
78696;SHT31;68030;51.980;5.646;2024-03-29T01:21:49;12.1;50.8
78696;SHT31;68030;51.980;5.646;2024-03-29T01:24:18;12.1;50.8
78696;SHT31;68030;51.980;5.646;2024-03-29T01:26:47;12.1;51.0
78696;SHT31;68030;51.980;5.646;2024-03-29T01:29:15;12.0;50.8
78696;SHT31;68030;51.980;5.646;2024-03-29T01:31:46;12.0;51.0
78696;SHT31;68030;51.980;5.646;2024-03-29T01:34:14;12.0;50.8
78696;SHT31;68030;51.980;5.646;2024-03-29T01:36:43;12.0;51.1
78696;SHT31;68030;51.980;5.646;2024-03-29T01:39:12;12.0;50.9
78696;SHT31;68030;51.980;5.646;2024-03-29T01:41:43;12.0;50.9
78696;SHT31;68030;51.980;5.646;2024-03-29T01:44:12;12.0;50.9
78696;SHT31;68030;51.980;5.646;2024-03-29T01:46:41;11.9;51.0
78696;SHT31;68030;51.980;5.646;2024-03-29T01:49:11;11.9;51.2
78696;SHT31;68030;51.980;5.646;2024-03-29T01:51:42;11.9;51.3
78696;SHT31;68030;51.980;5.646;2024-03-29T01:54:12;11.9;51.2
78696;SHT31;68030;51.980;5.646;2024-03-29T01:56:42;11.9;51.4
78696;SHT31;68030;51.980;5.646;2024-03-29T01:59:14;11.9;51.6
78696;SHT31;68030;51.980;5.646;2024-03-29T02:01:45;11.9;51.5
78696;SHT31;68030;51.980;5.646;2024-03-29T02:04:15;11.9;51.6
78696;SHT31;68030;51.980;5.646;2024-03-29T02:06:44;11.8;51.5
78696;SHT31;68030;51.980;5.646;2024-03-29T02:09:13;11.8;51.7
78696;SHT31;68030;51.980;5.646;2024-03-29T02:11:42;11.8;51.8
78696;SHT31;68030;51.980;5.646;2024-03-29T02:14:10;11.8;51.7
78696;SHT31;68030;51.980;5.646;2024-03-29T02:16:38;11.8;51.7
78696;SHT31;68030;51.980;5.646;2024-03-29T02:19:08;11.7;51.8
78696;SHT31;68030;51.980;5.646;2024-03-29T02:21:42;11.7;52.0
78696;SHT31;68030;51.980;5.646;2024-03-29T02:24:14;11.7;52.0
78696;SHT31;68030;51.980;5.646;2024-03-29T02:26:44;11.7;52.1
78696;SHT31;68030;51.980;5.646;2024-03-29T02:29:13;11.6;52.3
78696;SHT31;68030;51.980;5.646;2024-03-29T02:31:42;11.6;52.1
78696;SHT31;68030;51.980;5.646;2024-03-29T02:34:10;11.6;52.2
78696;SHT31;68030;51.980;5.646;2024-03-29T02:36:39;11.6;52.3
78696;SHT31;68030;51.980;5.646;2024-03-29T02:39:10;11.6;52.4
78696;SHT31;68030;51.980;5.646;2024-03-29T02:41:38;11.6;52.4
78696;SHT31;68030;51.980;5.646;2024-03-29T02:44:07;11.6;52.3
78696;SHT31;68030;51.980;5.646;2024-03-29T02:46:37;11.6;52.3
78696;SHT31;68030;51.980;5.646;2024-03-29T02:49:06;11.6;52.1
78696;SHT31;68030;51.980;5.646;2024-03-29T02:51:36;11.7;52.3
78696;SHT31;68030;51.980;5.646;2024-03-29T02:54:05;11.7;52.1
78696;SHT31;68030;51.980;5.646;2024-03-29T02:56:33;11.7;52.1
78696;SHT31;68030;51.980;5.646;2024-03-29T02:59:02;11.7;52.0
78696;SHT31;68030;51.980;5.646;2024-03-29T03:01:30;11.7;51.9
78696;SHT31;68030;51.980;5.646;2024-03-29T03:03:59;11.8;51.9
78696;SHT31;68030;51.980;5.646;2024-03-29T03:06:27;11.8;51.9
78696;SHT31;68030;51.980;5.646;2024-03-29T03:08:55;11.8;51.9
78696;SHT31;68030;51.980;5.646;2024-03-29T03:11:40;11.8;51.9
78696;SHT31;68030;51.980;5.646;2024-03-29T03:14:09;11.9;51.9
78696;SHT31;68030;51.980;5.646;2024-03-29T03:16:37;11.9;51.9
78696;SHT31;68030;51.980;5.646;2024-03-29T03:19:05;11.9;51.8
78696;SHT31;68030;51.980;5.646;2024-03-29T03:21:35;11.9;51.9
78696;SHT31;68030;51.980;5.646;2024-03-29T03:24:04;11.9;51.8
78696;SHT31;68030;51.980;5.646;2024-03-29T03:26:33;12.0;51.8
78696;SHT31;68030;51.980;5.646;2024-03-29T03:29:02;12.0;51.8
78696;SHT31;68030;51.980;5.646;2024-03-29T03:31:30;12.0;51.9
78696;SHT31;68030;51.980;5.646;2024-03-29T03:33:59;12.0;51.9
78696;SHT31;68030;51.980;5.646;2024-03-29T03:36:27;12.1;51.8
78696;SHT31;68030;51.980;5.646;2024-03-29T03:38:55;12.1;51.8
78696;SHT31;68030;51.980;5.646;2024-03-29T03:41:26;12.1;51.5
78696;SHT31;68030;51.980;5.646;2024-03-29T03:43:55;12.1;51.7
78696;SHT31;68030;51.980;5.646;2024-03-29T03:46:23;12.1;51.5
78696;SHT31;68030;51.980;5.646;2024-03-29T03:48:52;12.2;51.5
78696;SHT31;68030;51.980;5.646;2024-03-29T03:51:20;12.2;51.5
78696;SHT31;68030;51.980;5.646;2024-03-29T03:53:49;12.2;51.6
78696;SHT31;68030;51.980;5.646;2024-03-29T03:56:18;12.2;51.4
78696;SHT31;68030;51.980;5.646;2024-03-29T03:58:46;12.3;51.4
78696;SHT31;68030;51.980;5.646;2024-03-29T04:01:15;12.3;51.3
78696;SHT31;68030;51.980;5.646;2024-03-29T04:03:43;12.3;51.5
78696;SHT31;68030;51.980;5.646;2024-03-29T04:06:14;12.3;51.6
78696;SHT31;68030;51.980;5.646;2024-03-29T04:08:43;12.4;51.7
78696;SHT31;68030;51.980;5.646;2024-03-29T04:11:14;12.4;51.7
78696;SHT31;68030;51.980;5.646;2024-03-29T04:13:46;12.4;52.0
78696;SHT31;68030;51.980;5.646;2024-03-29T04:16:14;12.5;52.1
78696;SHT31;68030;51.980;5.646;2024-03-29T04:18:42;12.5;52.4
78696;SHT31;68030;51.980;5.646;2024-03-29T04:21:13;12.5;52.9
78696;SHT31;68030;51.980;5.646;2024-03-29T04:23:41;12.5;53.5
78696;SHT31;68030;51.980;5.646;2024-03-29T04:26:10;12.6;54.2
78696;SHT31;68030;51.980;5.646;2024-03-29T04:28:40;12.6;54.1
78696;SHT31;68030;51.980;5.646;2024-03-29T04:31:09;12.6;54.2
78696;SHT31;68030;51.980;5.646;2024-03-29T04:33:37;12.5;54.1
78696;SHT31;68030;51.980;5.646;2024-03-29T04:36:06;12.5;54.2
78696;SHT31;68030;51.980;5.646;2024-03-29T04:38:35;12.5;54.6
78696;SHT31;68030;51.980;5.646;2024-03-29T04:41:04;12.5;54.9
78696;SHT31;68030;51.980;5.646;2024-03-29T04:43:32;12.5;55.4
78696;SHT31;68030;51.980;5.646;2024-03-29T04:46:08;12.5;56.0
78696;SHT31;68030;51.980;5.646;2024-03-29T04:48:37;12.5;56.6
78696;SHT31;68030;51.980;5.646;2024-03-29T04:51:06;12.4;56.8
78696;SHT31;68030;51.980;5.646;2024-03-29T04:53:37;12.4;57.1
78696;SHT31;68030;51.980;5.646;2024-03-29T04:56:07;12.4;57.3
78696;SHT31;68030;51.980;5.646;2024-03-29T04:58:35;12.4;57.7
78696;SHT31;68030;51.980;5.646;2024-03-29T05:01:04;12.4;58.0
78696;SHT31;68030;51.980;5.646;2024-03-29T05:03:33;12.4;58.2
78696;SHT31;68030;51.980;5.646;2024-03-29T05:06:01;12.4;58.5
78696;SHT31;68030;51.980;5.646;2024-03-29T05:08:30;12.3;58.5
78696;SHT31;68030;51.980;5.646;2024-03-29T05:10:59;12.3;58.7
78696;SHT31;68030;51.980;5.646;2024-03-29T05:13:28;12.3;59.0
78696;SHT31;68030;51.980;5.646;2024-03-29T05:15:58;12.3;59.7
78696;SHT31;68030;51.980;5.646;2024-03-29T05:18:26;12.3;60.0
78696;SHT31;68030;51.980;5.646;2024-03-29T05:20:55;12.3;60.0
78696;SHT31;68030;51.980;5.646;2024-03-29T05:23:23;12.2;60.2
78696;SHT31;68030;51.980;5.646;2024-03-29T05:25:52;12.2;60.2
78696;SHT31;68030;51.980;5.646;2024-03-29T05:28:20;12.2;60.6
78696;SHT31;68030;51.980;5.646;2024-03-29T05:30:48;12.2;60.8
78696;SHT31;68030;51.980;5.646;2024-03-29T05:33:17;12.2;61.1
78696;SHT31;68030;51.980;5.646;2024-03-29T05:35:45;12.1;61.3
78696;SHT31;68030;51.980;5.646;2024-03-29T05:38:14;12.1;61.4
78696;SHT31;68030;51.980;5.646;2024-03-29T05:40:43;12.1;61.6
78696;SHT31;68030;51.980;5.646;2024-03-29T05:43:13;12.1;62.0
78696;SHT31;68030;51.980;5.646;2024-03-29T05:45:43;12.1;62.2
78696;SHT31;68030;51.980;5.646;2024-03-29T05:48:12;12.0;62.3
78696;SHT31;68030;51.980;5.646;2024-03-29T05:50:41;12.0;62.4
78696;SHT31;68030;51.980;5.646;2024-03-29T05:53:09;12.0;62.5
78696;SHT31;68030;51.980;5.646;2024-03-29T05:55:37;12.0;62.5
78696;SHT31;68030;51.980;5.646;2024-03-29T05:58:06;12.0;62.9
78696;SHT31;68030;51.980;5.646;2024-03-29T06:00:34;12.0;62.8
78696;SHT31;68030;51.980;5.646;2024-03-29T06:03:03;12.0;63.0
78696;SHT31;68030;51.980;5.646;2024-03-29T06:05:32;12.0;63.2
78696;SHT31;68030;51.980;5.646;2024-03-29T06:08:00;12.0;63.5
78696;SHT31;68030;51.980;5.646;2024-03-29T06:10:31;12.0;63.6
78696;SHT31;68030;51.980;5.646;2024-03-29T06:13:00;12.0;63.6
78696;SHT31;68030;51.980;5.646;2024-03-29T06:15:34;12.0;63.7
78696;SHT31;68030;51.980;5.646;2024-03-29T06:18:19;12.0;63.8
78696;SHT31;68030;51.980;5.646;2024-03-29T06:20:48;12.0;63.8
78696;SHT31;68030;51.980;5.646;2024-03-29T06:23:17;12.0;64.0
78696;SHT31;68030;51.980;5.646;2024-03-29T06:25:46;12.0;64.1
78696;SHT31;68030;51.980;5.646;2024-03-29T06:28:14;12.0;64.2
78696;SHT31;68030;51.980;5.646;2024-03-29T06:30:43;12.0;64.8
78696;SHT31;68030;51.980;5.646;2024-03-29T06:33:12;12.1;65.2
78696;SHT31;68030;51.980;5.646;2024-03-29T06:35:40;12.1;65.1
78696;SHT31;68030;51.980;5.646;2024-03-29T06:38:10;12.1;65.4
78696;SHT31;68030;51.980;5.646;2024-03-29T06:40:40;12.1;65.6
78696;SHT31;68030;51.980;5.646;2024-03-29T06:43:11;12.1;65.0
78696;SHT31;68030;51.980;5.646;2024-03-29T06:45:41;12.1;65.2
78696;SHT31;68030;51.980;5.646;2024-03-29T06:48:11;12.1;65.1
78696;SHT31;68030;51.980;5.646;2024-03-29T06:50:41;12.1;65.4
78696;SHT31;68030;51.980;5.646;2024-03-29T06:53:09;12.1;65.7
78696;SHT31;68030;51.980;5.646;2024-03-29T06:55:38;12.1;66.0
78696;SHT31;68030;51.980;5.646;2024-03-29T06:58:06;12.1;66.0
78696;SHT31;68030;51.980;5.646;2024-03-29T07:00:36;12.1;65.7
78696;SHT31;68030;51.980;5.646;2024-03-29T07:03:05;12.1;65.7
78696;SHT31;68030;51.980;5.646;2024-03-29T07:05:33;12.1;65.9
78696;SHT31;68030;51.980;5.646;2024-03-29T07:08:02;12.1;66.1
78696;SHT31;68030;51.980;5.646;2024-03-29T07:10:31;12.1;66.0
78696;SHT31;68030;51.980;5.646;2024-03-29T07:13:00;12.0;66.4
78696;SHT31;68030;51.980;5.646;2024-03-29T07:15:28;12.0;66.5
78696;SHT31;68030;51.980;5.646;2024-03-29T07:17:59;12.0;66.7
78696;SHT31;68030;51.980;5.646;2024-03-29T07:20:29;12.0;66.6
78696;SHT31;68030;51.980;5.646;2024-03-29T07:22:58;12.0;66.6
78696;SHT31;68030;51.980;5.646;2024-03-29T07:25:26;12.0;66.7
78696;SHT31;68030;51.980;5.646;2024-03-29T07:27:57;12.0;67.1
78696;SHT31;68030;51.980;5.646;2024-03-29T07:30:25;12.0;67.3
78696;SHT31;68030;51.980;5.646;2024-03-29T07:32:53;12.0;67.8
78696;SHT31;68030;51.980;5.646;2024-03-29T07:35:22;12.0;67.5
78696;SHT31;68030;51.980;5.646;2024-03-29T07:37:51;12.0;67.5
78696;SHT31;68030;51.980;5.646;2024-03-29T07:40:20;12.0;67.2
78696;SHT31;68030;51.980;5.646;2024-03-29T07:42:48;12.0;67.3
78696;SHT31;68030;51.980;5.646;2024-03-29T07:45:17;12.0;67.5
78696;SHT31;68030;51.980;5.646;2024-03-29T07:47:45;12.0;67.4
78696;SHT31;68030;51.980;5.646;2024-03-29T07:50:19;12.0;67.2
78696;SHT31;68030;51.980;5.646;2024-03-29T07:52:48;12.0;67.2
78696;SHT31;68030;51.980;5.646;2024-03-29T07:55:17;12.0;67.3
78696;SHT31;68030;51.980;5.646;2024-03-29T07:57:46;12.1;67.4
78696;SHT31;68030;51.980;5.646;2024-03-29T08:00:16;12.1;67.7
78696;SHT31;68030;51.980;5.646;2024-03-29T08:02:45;12.1;67.9
78696;SHT31;68030;51.980;5.646;2024-03-29T08:05:15;12.1;67.7
78696;SHT31;68030;51.980;5.646;2024-03-29T08:07:43;12.2;67.5
78696;SHT31;68030;51.980;5.646;2024-03-29T08:10:14;12.2;67.1
78696;SHT31;68030;51.980;5.646;2024-03-29T08:12:43;12.2;66.7
78696;SHT31;68030;51.980;5.646;2024-03-29T08:15:13;12.3;66.7
78696;SHT31;68030;51.980;5.646;2024-03-29T08:17:44;12.3;66.6
78696;SHT31;68030;51.980;5.646;2024-03-29T08:20:13;12.3;66.5
78696;SHT31;68030;51.980;5.646;2024-03-29T08:22:42;12.4;66.6
78696;SHT31;68030;51.980;5.646;2024-03-29T08:25:12;12.4;66.7
78696;SHT31;68030;51.980;5.646;2024-03-29T08:27:40;12.4;66.9
78696;SHT31;68030;51.980;5.646;2024-03-29T08:30:10;12.5;67.3
78696;SHT31;68030;51.980;5.646;2024-03-29T08:32:40;12.6;66.5
78696;SHT31;68030;51.980;5.646;2024-03-29T08:35:09;12.6;65.8
78696;SHT31;68030;51.980;5.646;2024-03-29T08:37:38;12.6;65.0
78696;SHT31;68030;51.980;5.646;2024-03-29T08:40:07;12.6;65.2
78696;SHT31;68030;51.980;5.646;2024-03-29T08:42:36;12.6;65.8
78696;SHT31;68030;51.980;5.646;2024-03-29T08:45:07;12.7;66.1
78696;SHT31;68030;51.980;5.646;2024-03-29T08:47:36;12.7;66.5
78696;SHT31;68030;51.980;5.646;2024-03-29T08:50:05;12.8;66.8
78696;SHT31;68030;51.980;5.646;2024-03-29T08:52:36;12.8;66.3
78696;SHT31;68030;51.980;5.646;2024-03-29T08:55:07;12.9;65.9
78696;SHT31;68030;51.980;5.646;2024-03-29T08:57:35;13.0;65.2
78696;SHT31;68030;51.980;5.646;2024-03-29T09:00:04;13.1;65.2
78696;SHT31;68030;51.980;5.646;2024-03-29T09:02:33;13.2;65.6
78696;SHT31;68030;51.980;5.646;2024-03-29T09:05:02;13.3;65.3
78696;SHT31;68030;51.980;5.646;2024-03-29T09:07:31;13.4;65.1
78696;SHT31;68030;51.980;5.646;2024-03-29T09:10:00;13.6;63.7
78696;SHT31;68030;51.980;5.646;2024-03-29T09:12:30;13.7;61.6
78696;SHT31;68030;51.980;5.646;2024-03-29T09:14:58;13.8;61.1
78696;SHT31;68030;51.980;5.646;2024-03-29T09:17:27;13.9;61.2
78696;SHT31;68030;51.980;5.646;2024-03-29T09:19:56;13.9;60.9
78696;SHT31;68030;51.980;5.646;2024-03-29T09:22:25;14.0;60.7
78696;SHT31;68030;51.980;5.646;2024-03-29T09:24:53;14.1;60.1
78696;SHT31;68030;51.980;5.646;2024-03-29T09:27:22;14.1;60.1
78696;SHT31;68030;51.980;5.646;2024-03-29T09:29:50;14.2;60.8
78696;SHT31;68030;51.980;5.646;2024-03-29T09:32:19;14.3;61.6
78696;SHT31;68030;51.980;5.646;2024-03-29T09:34:49;14.4;60.9
78696;SHT31;68030;51.980;5.646;2024-03-29T09:37:18;14.5;60.3
78696;SHT31;68030;51.980;5.646;2024-03-29T09:39:47;14.6;60.0
78696;SHT31;68030;51.980;5.646;2024-03-29T09:42:17;14.8;59.8
78696;SHT31;68030;51.980;5.646;2024-03-29T09:44:52;14.9;60.1
78696;SHT31;68030;51.980;5.646;2024-03-29T09:47:22;15.1;59.6
78696;SHT31;68030;51.980;5.646;2024-03-29T09:49:53;15.3;57.8
78696;SHT31;68030;51.980;5.646;2024-03-29T09:52:24;15.5;58.1
78696;SHT31;68030;51.980;5.646;2024-03-29T09:54:55;15.6;56.2
78696;SHT31;68030;51.980;5.646;2024-03-29T09:57:24;15.7;55.2
78696;SHT31;68030;51.980;5.646;2024-03-29T09:59:56;15.8;55.8
78696;SHT31;68030;51.980;5.646;2024-03-29T10:02:29;15.9;56.1
78696;SHT31;68030;51.980;5.646;2024-03-29T10:05:01;16.0;53.8
78696;SHT31;68030;51.980;5.646;2024-03-29T10:07:32;16.0;55.4
78696;SHT31;68030;51.980;5.646;2024-03-29T10:10:03;16.1;53.9
78696;SHT31;68030;51.980;5.646;2024-03-29T10:12:31;16.1;54.7
78696;SHT31;68030;51.980;5.646;2024-03-29T10:15:00;16.1;54.0
78696;SHT31;68030;51.980;5.646;2024-03-29T10:17:35;16.2;54.7
78696;SHT31;68030;51.980;5.646;2024-03-29T10:20:06;16.2;54.4
78696;SHT31;68030;51.980;5.646;2024-03-29T10:22:40;16.2;54.3
78696;SHT31;68030;51.980;5.646;2024-03-29T10:25:10;16.2;54.6
78696;SHT31;68030;51.980;5.646;2024-03-29T10:27:40;16.2;53.7
78696;SHT31;68030;51.980;5.646;2024-03-29T10:30:10;16.2;53.7
78696;SHT31;68030;51.980;5.646;2024-03-29T10:32:45;16.2;53.6
78696;SHT31;68030;51.980;5.646;2024-03-29T10:35:14;16.2;53.3
78696;SHT31;68030;51.980;5.646;2024-03-29T10:37:44;16.1;53.1
78696;SHT31;68030;51.980;5.646;2024-03-29T10:40:13;16.1;53.4
78696;SHT31;68030;51.980;5.646;2024-03-29T10:42:45;16.0;53.5
78696;SHT31;68030;51.980;5.646;2024-03-29T10:45:15;16.0;53.6
78696;SHT31;68030;51.980;5.646;2024-03-29T10:47:44;15.9;54.7
78696;SHT31;68030;51.980;5.646;2024-03-29T10:50:14;15.9;55.4
78696;SHT31;68030;51.980;5.646;2024-03-29T10:52:43;15.9;55.8
78696;SHT31;68030;51.980;5.646;2024-03-29T10:55:12;15.9;54.9
78696;SHT31;68030;51.980;5.646;2024-03-29T10:57:41;16.0;54.6
78696;SHT31;68030;51.980;5.646;2024-03-29T11:00:13;16.0;55.1
78696;SHT31;68030;51.980;5.646;2024-03-29T11:02:48;16.0;54.9
78696;SHT31;68030;51.980;5.646;2024-03-29T11:05:21;16.1;54.1
78696;SHT31;68030;51.980;5.646;2024-03-29T11:07:52;16.2;53.5
78696;SHT31;68030;51.980;5.646;2024-03-29T11:10:29;16.3;53.5
78696;SHT31;68030;51.980;5.646;2024-03-29T11:13:05;16.3;52.8
78696;SHT31;68030;51.980;5.646;2024-03-29T11:15:41;16.4;53.4
78696;SHT31;68030;51.980;5.646;2024-03-29T11:18:10;16.5;53.2
78696;SHT31;68030;51.980;5.646;2024-03-29T11:20:40;16.5;53.2
78696;SHT31;68030;51.980;5.646;2024-03-29T11:23:14;16.5;54.2
78696;SHT31;68030;51.980;5.646;2024-03-29T11:25:44;16.6;53.5
78696;SHT31;68030;51.980;5.646;2024-03-29T11:28:22;16.7;53.7
78696;SHT31;68030;51.980;5.646;2024-03-29T11:30:50;16.8;51.9
78696;SHT31;68030;51.980;5.646;2024-03-29T11:33:28;16.9;52.8
78696;SHT31;68030;51.980;5.646;2024-03-29T11:35:59;17.1;51.2
78696;SHT31;68030;51.980;5.646;2024-03-29T11:38:32;17.2;51.4
78696;SHT31;68030;51.980;5.646;2024-03-29T11:41:05;17.3;51.4
78696;SHT31;68030;51.980;5.646;2024-03-29T11:43:35;17.4;51.2
78696;SHT31;68030;51.980;5.646;2024-03-29T11:46:07;17.5;49.9
78696;SHT31;68030;51.980;5.646;2024-03-29T11:48:37;17.6;50.2
78696;SHT31;68030;51.980;5.646;2024-03-29T11:51:08;17.7;50.8
78696;SHT31;68030;51.980;5.646;2024-03-29T11:53:38;17.8;50.7
78696;SHT31;68030;51.980;5.646;2024-03-29T11:56:07;17.9;49.4
78696;SHT31;68030;51.980;5.646;2024-03-29T11:58:35;18.0;49.1
78696;SHT31;68030;51.980;5.646;2024-03-29T12:01:06;18.1;49.4
78696;SHT31;68030;51.980;5.646;2024-03-29T12:03:38;18.2;48.8
78696;SHT31;68030;51.980;5.646;2024-03-29T12:06:08;18.3;48.7
78696;SHT31;68030;51.980;5.646;2024-03-29T12:08:38;18.4;48.1
78696;SHT31;68030;51.980;5.646;2024-03-29T12:11:09;18.5;47.7
78696;SHT31;68030;51.980;5.646;2024-03-29T12:13:38;18.6;47.5
78696;SHT31;68030;51.980;5.646;2024-03-29T12:16:07;18.6;47.5
78696;SHT31;68030;51.980;5.646;2024-03-29T12:18:36;18.6;47.6
78696;SHT31;68030;51.980;5.646;2024-03-29T12:21:06;18.7;47.1
78696;SHT31;68030;51.980;5.646;2024-03-29T12:23:38;18.7;47.2
78696;SHT31;68030;51.980;5.646;2024-03-29T12:26:07;18.7;47.0
78696;SHT31;68030;51.980;5.646;2024-03-29T12:28:38;18.7;47.2
78696;SHT31;68030;51.980;5.646;2024-03-29T12:31:09;18.8;48.0
78696;SHT31;68030;51.980;5.646;2024-03-29T12:33:38;18.8;47.0
78696;SHT31;68030;51.980;5.646;2024-03-29T12:36:07;18.9;46.8
78696;SHT31;68030;51.980;5.646;2024-03-29T12:38:38;18.9;45.4
78696;SHT31;68030;51.980;5.646;2024-03-29T12:41:06;19.0;46.0
78696;SHT31;68030;51.980;5.646;2024-03-29T12:43:35;19.0;44.9
78696;SHT31;68030;51.980;5.646;2024-03-29T12:46:04;19.1;44.1
78696;SHT31;68030;51.980;5.646;2024-03-29T12:48:35;19.1;44.8
78696;SHT31;68030;51.980;5.646;2024-03-29T12:51:06;19.1;44.5
78696;SHT31;68030;51.980;5.646;2024-03-29T12:53:38;19.2;44.6
78696;SHT31;68030;51.980;5.646;2024-03-29T12:56:09;19.2;44.4
78696;SHT31;68030;51.980;5.646;2024-03-29T12:58:38;19.3;43.2
78696;SHT31;68030;51.980;5.646;2024-03-29T13:01:06;19.3;44.1
78696;SHT31;68030;51.980;5.646;2024-03-29T13:03:36;19.3;44.2
78696;SHT31;68030;51.980;5.646;2024-03-29T13:06:07;19.3;44.3
78696;SHT31;68030;51.980;5.646;2024-03-29T13:08:36;19.4;43.7
78696;SHT31;68030;51.980;5.646;2024-03-29T13:11:05;19.4;43.2
78696;SHT31;68030;51.980;5.646;2024-03-29T13:13:34;19.4;44.0
78696;SHT31;68030;51.980;5.646;2024-03-29T13:16:02;19.4;44.0
78696;SHT31;68030;51.980;5.646;2024-03-29T13:18:31;19.4;44.4
78696;SHT31;68030;51.980;5.646;2024-03-29T13:21:00;19.5;43.8
78696;SHT31;68030;51.980;5.646;2024-03-29T13:23:29;19.5;43.7
78696;SHT31;68030;51.980;5.646;2024-03-29T13:26:00;19.5;43.1
78696;SHT31;68030;51.980;5.646;2024-03-29T13:28:30;19.6;43.1
78696;SHT31;68030;51.980;5.646;2024-03-29T13:30:58;19.6;43.6
78696;SHT31;68030;51.980;5.646;2024-03-29T13:33:27;19.7;43.7
78696;SHT31;68030;51.980;5.646;2024-03-29T13:35:57;19.7;43.5
78696;SHT31;68030;51.980;5.646;2024-03-29T13:38:26;19.7;42.2
78696;SHT31;68030;51.980;5.646;2024-03-29T13:40:58;19.7;43.4
78696;SHT31;68030;51.980;5.646;2024-03-29T13:43:26;19.8;42.8
78696;SHT31;68030;51.980;5.646;2024-03-29T13:45:55;19.8;43.1
78696;SHT31;68030;51.980;5.646;2024-03-29T13:48:25;19.8;42.8
78696;SHT31;68030;51.980;5.646;2024-03-29T13:50:54;19.9;42.3
78696;SHT31;68030;51.980;5.646;2024-03-29T13:53:22;19.9;42.3
78696;SHT31;68030;51.980;5.646;2024-03-29T13:55:51;20.0;42.5
78696;SHT31;68030;51.980;5.646;2024-03-29T13:58:19;20.0;42.2
78696;SHT31;68030;51.980;5.646;2024-03-29T14:00:47;20.1;40.7
78696;SHT31;68030;51.980;5.646;2024-03-29T14:03:17;20.1;39.9
78696;SHT31;68030;51.980;5.646;2024-03-29T14:05:45;20.1;40.3
78696;SHT31;68030;51.980;5.646;2024-03-29T14:08:14;20.2;41.2
78696;SHT31;68030;51.980;5.646;2024-03-29T14:10:42;20.2;40.0
78696;SHT31;68030;51.980;5.646;2024-03-29T14:13:11;20.2;40.8
78696;SHT31;68030;51.980;5.646;2024-03-29T14:15:40;20.2;41.0
78696;SHT31;68030;51.980;5.646;2024-03-29T14:18:09;20.2;40.2
78696;SHT31;68030;51.980;5.646;2024-03-29T14:20:39;20.2;40.7
78696;SHT31;68030;51.980;5.646;2024-03-29T14:23:09;20.2;41.5
78696;SHT31;68030;51.980;5.646;2024-03-29T14:25:41;20.2;41.1
78696;SHT31;68030;51.980;5.646;2024-03-29T14:28:10;20.2;42.1
78696;SHT31;68030;51.980;5.646;2024-03-29T14:30:38;20.2;40.4
78696;SHT31;68030;51.980;5.646;2024-03-29T14:33:09;20.2;40.2
78696;SHT31;68030;51.980;5.646;2024-03-29T14:35:37;20.2;39.6
78696;SHT31;68030;51.980;5.646;2024-03-29T14:38:06;20.2;40.2
78696;SHT31;68030;51.980;5.646;2024-03-29T14:40:34;20.2;40.7
78696;SHT31;68030;51.980;5.646;2024-03-29T14:43:05;20.2;40.5
78696;SHT31;68030;51.980;5.646;2024-03-29T14:45:34;20.2;40.6
78696;SHT31;68030;51.980;5.646;2024-03-29T14:48:03;20.2;40.8
78696;SHT31;68030;51.980;5.646;2024-03-29T14:50:32;20.2;41.4
78696;SHT31;68030;51.980;5.646;2024-03-29T14:53:01;20.2;41.4
78696;SHT31;68030;51.980;5.646;2024-03-29T14:55:30;20.2;41.1
78696;SHT31;68030;51.980;5.646;2024-03-29T14:57:58;20.2;41.3
78696;SHT31;68030;51.980;5.646;2024-03-29T15:00:27;20.2;42.2
78696;SHT31;68030;51.980;5.646;2024-03-29T15:02:58;20.2;41.3
78696;SHT31;68030;51.980;5.646;2024-03-29T15:05:26;20.2;41.7
78696;SHT31;68030;51.980;5.646;2024-03-29T15:07:55;20.1;41.4
78696;SHT31;68030;51.980;5.646;2024-03-29T15:10:24;20.1;41.6
78696;SHT31;68030;51.980;5.646;2024-03-29T15:12:52;20.1;41.8
78696;SHT31;68030;51.980;5.646;2024-03-29T15:15:21;20.1;42.0
78696;SHT31;68030;51.980;5.646;2024-03-29T15:17:50;20.1;41.7
78696;SHT31;68030;51.980;5.646;2024-03-29T15:20:19;20.1;41.4
78696;SHT31;68030;51.980;5.646;2024-03-29T15:22:48;20.1;41.1
78696;SHT31;68030;51.980;5.646;2024-03-29T15:25:18;20.1;41.4
78696;SHT31;68030;51.980;5.646;2024-03-29T15:27:46;20.2;40.9
78696;SHT31;68030;51.980;5.646;2024-03-29T15:32:03;20.2;41.1
78696;SHT31;68030;51.980;5.646;2024-03-29T15:34:32;20.1;41.2
78696;SHT31;68030;51.980;5.646;2024-03-29T15:37:00;20.1;41.5
78696;SHT31;68030;51.980;5.646;2024-03-29T15:39:29;20.1;41.5
78696;SHT31;68030;51.980;5.646;2024-03-29T15:41:59;20.1;41.4
78696;SHT31;68030;51.980;5.646;2024-03-29T15:44:28;20.1;40.6
78696;SHT31;68030;51.980;5.646;2024-03-29T15:46:57;20.1;40.7
78696;SHT31;68030;51.980;5.646;2024-03-29T15:49:25;20.1;40.7
78696;SHT31;68030;51.980;5.646;2024-03-29T15:51:53;20.1;40.8
78696;SHT31;68030;51.980;5.646;2024-03-29T15:54:22;20.0;41.2
78696;SHT31;68030;51.980;5.646;2024-03-29T15:56:53;20.0;41.6
78696;SHT31;68030;51.980;5.646;2024-03-29T15:59:22;20.0;42.0
78696;SHT31;68030;51.980;5.646;2024-03-29T16:01:50;20.0;42.5
78696;SHT31;68030;51.980;5.646;2024-03-29T16:04:19;19.9;41.6
78696;SHT31;68030;51.980;5.646;2024-03-29T16:06:47;19.9;41.5
78696;SHT31;68030;51.980;5.646;2024-03-29T16:09:16;19.9;41.8
78696;SHT31;68030;51.980;5.646;2024-03-29T16:11:44;19.9;40.8
78696;SHT31;68030;51.980;5.646;2024-03-29T16:14:13;19.8;40.4
78696;SHT31;68030;51.980;5.646;2024-03-29T16:16:42;19.8;40.4
78696;SHT31;68030;51.980;5.646;2024-03-29T16:19:10;19.7;40.6